Ridgecrest, NC

7:42 AM EST on December 06, 2016 (GMT -0500)
High Rock Acres | | Change Station

Elev 3215 ft 35.59 °N, 82.28 °W | Updated 11 minutes ago

Light Rain
Light Rain
39.1 °F
Feels Like 33 °F
N
9.0
Wind Variable Wind from SW
Gusts 18.0 mph

Today
High -- | Low -- °F
--% Chance of Precip.
Yesterday
High -- | Low -- °F
Precip. -- in
Pressure 29.83 in
Visibility 10.0 miles
Clouds Scattered Clouds 700 ft
Mostly Cloudy 1500 ft
Overcast 2000 ft
Windchill 33 °F
Dew Point 39 °F
Humidity 98%
Rainfall 0.04 in
Snow Depth Not available.
7:24 AM 5:15 PM
Waxing Crescent, 41% visible
SPECI KAVL 061234Z 19007KT 10SM -RA SCT007 BKN015 OVC020 07/06 A2983 RMK AO2 P0004 T00720056
Pressure 29.83 in
Visibility 10.0 miles
Clouds Scattered Clouds 700 ft
Mostly Cloudy 1500 ft
Overcast 2000 ft
Windchill 33 °F
Dew Point 39 °F
Humidity 98%
Rainfall 0.04 in
Snow Depth Not available.
7:24 AM 5:15 PM
Waxing Crescent, 41% visible
SPECI KAVL 061234Z 19007KT 10SM -RA SCT007 BKN015 OVC020 07/06 A2983 RMK AO2 P0004 T00720056

10-Day Weather Forecast

Almanac

Astronomy

Dec. 06, 2016 Rise Set
Actual Time
Civil Twilight
Nautical Twilight
Astronomical Twilight
Moon
Length of Visible Light
Length of Day
Tomorrow will be .
, % of the Moon is Illuminated

Today's Extremes

State Highs State Lows

Community

WunderPhotos

Upload Photos

1,955,938 photos uploaded!

WunderBlog® & News

Nearby

Air Quality

  Air Quality AQ Index Pollutant
Not available.

Snow Depth

Station Depth Elevation

Earthquake Activity

City Distance Mag. Time & Date
Minimum magnitude displayed is 2.5.

Coastal Water Temperatures

Place Temperature

Stations

Nearby Weather Stations

Station Location Temp. Windchill Dew Point Humidity Wind Precip. Elev Updated Type
                   

Watches & Warnings

There are currently no watches in effect.